sensor_id;sensor_type;location;lat;lon;timestamp;pressure;altitude;pressure_sealevel;temperature;humidity
71361;BME280;59166;48.908;1.870;2022-11-14T00:01:41;100151.69;;;8.60;100.00
71361;BME280;59166;48.908;1.870;2022-11-14T00:07:00;100151.31;;;8.51;100.00
71361;BME280;59166;48.908;1.870;2022-11-14T00:12:11;100132.59;;;8.40;100.00
71361;BME280;59166;48.908;1.870;2022-11-14T00:17:40;100129.94;;;8.45;100.00
71361;BME280;59166;48.908;1.870;2022-11-14T00:23:08;100120.69;;;8.36;100.00
71361;BME280;59166;48.908;1.870;2022-11-14T00:28:27;100134.06;;;8.30;100.00
71361;BME280;59166;48.908;1.870;2022-11-14T00:44:46;100130.72;;;8.40;100.00
71361;BME280;59166;48.908;1.870;2022-11-14T00:50:12;100122.97;;;8.44;100.00
71361;BME280;59166;48.908;1.870;2022-11-14T00:55:27;100119.44;;;8.43;100.00
71361;BME280;59166;48.908;1.870;2022-11-14T01:00:33;100123.47;;;8.41;100.00
71361;BME280;59166;48.908;1.870;2022-11-14T01:06:08;100122.34;;;8.37;100.00
71361;BME280;59166;48.908;1.870;2022-11-14T01:17:12;100107.25;;;8.36;100.00
71361;BME280;59166;48.908;1.870;2022-11-14T01:22:04;100109.13;;;8.35;100.00
71361;BME280;59166;48.908;1.870;2022-11-14T01:27:17;100103.38;;;8.26;100.00
71361;BME280;59166;48.908;1.870;2022-11-14T01:32:27;100114.38;;;8.25;100.00
71361;BME280;59166;48.908;1.870;2022-11-14T01:37:44;100106.56;;;8.23;100.00
71361;BME280;59166;48.908;1.870;2022-11-14T01:48:48;100109.16;;;8.18;100.00
71361;BME280;59166;48.908;1.870;2022-11-14T01:54:18;100102.41;;;8.16;100.00
71361;BME280;59166;48.908;1.870;2022-11-14T02:05:13;100089.97;;;8.10;100.00
71361;BME280;59166;48.908;1.870;2022-11-14T02:16:19;100090.81;;;7.94;100.00
71361;BME280;59166;48.908;1.870;2022-11-14T02:21:12;100087.25;;;7.88;100.00
71361;BME280;59166;48.908;1.870;2022-11-14T02:26:32;100079.41;;;7.87;100.00
71361;BME280;59166;48.908;1.870;2022-11-14T02:31:34;100076.44;;;7.83;100.00
71361;BME280;59166;48.908;1.870;2022-11-14T02:36:36;100070.47;;;7.81;100.00
71361;BME280;59166;48.908;1.870;2022-11-14T02:41:37;100062.84;;;7.73;100.00
71361;BME280;59166;48.908;1.870;2022-11-14T02:46:38;100062.59;;;7.58;100.00
71361;BME280;59166;48.908;1.870;2022-11-14T02:51:40;100059.28;;;7.51;100.00
71361;BME280;59166;48.908;1.870;2022-11-14T02:56:41;100053.19;;;7.39;100.00
71361;BME280;59166;48.908;1.870;2022-11-14T03:01:42;100057.75;;;7.38;100.00
71361;BME280;59166;48.908;1.870;2022-11-14T03:06:44;100047.66;;;7.28;100.00
71361;BME280;59166;48.908;1.870;2022-11-14T03:11:45;100042.63;;;7.15;100.00
71361;BME280;59166;48.908;1.870;2022-11-14T03:16:46;100047.66;;;7.12;100.00
71361;BME280;59166;48.908;1.870;2022-11-14T03:21:49;100048.06;;;7.20;100.00
71361;BME280;59166;48.908;1.870;2022-11-14T03:26:50;100032.09;;;7.14;100.00
71361;BME280;59166;48.908;1.870;2022-11-14T03:31:51;100020.06;;;7.16;100.00
71361;BME280;59166;48.908;1.870;2022-11-14T03:36:53;100023.31;;;7.18;100.00
71361;BME280;59166;48.908;1.870;2022-11-14T03:41:54;100019.56;;;7.19;100.00
71361;BME280;59166;48.908;1.870;2022-11-14T03:46:55;100011.50;;;7.19;100.00
71361;BME280;59166;48.908;1.870;2022-11-14T03:51:57;100021.53;;;7.07;100.00
71361;BME280;59166;48.908;1.870;2022-11-14T03:56:58;100025.41;;;7.16;100.00
71361;BME280;59166;48.908;1.870;2022-11-14T04:01:59;100010.69;;;7.02;100.00
71361;BME280;59166;48.908;1.870;2022-11-14T04:07:02;99998.91;;;6.87;100.00
71361;BME280;59166;48.908;1.870;2022-11-14T04:12:03;100005.56;;;6.84;100.00
71361;BME280;59166;48.908;1.870;2022-11-14T04:17:04;100018.25;;;6.89;100.00
71361;BME280;59166;48.908;1.870;2022-11-14T04:22:06;100006.22;;;6.91;100.00
71361;BME280;59166;48.908;1.870;2022-11-14T04:27:07;100001.09;;;6.90;100.00
71361;BME280;59166;48.908;1.870;2022-11-14T04:32:08;100002.63;;;6.86;100.00
71361;BME280;59166;48.908;1.870;2022-11-14T04:37:11;100001.34;;;6.88;100.00
71361;BME280;59166;48.908;1.870;2022-11-14T04:42:12;100002.56;;;6.81;100.00
71361;BME280;59166;48.908;1.870;2022-11-14T04:47:12;99986.34;;;6.75;100.00
71361;BME280;59166;48.908;1.870;2022-11-14T04:52:15;99985.56;;;6.75;100.00
71361;BME280;59166;48.908;1.870;2022-11-14T04:57:16;99984.97;;;6.73;100.00
71361;BME280;59166;48.908;1.870;2022-11-14T05:02:17;99982.88;;;6.75;100.00
71361;BME280;59166;48.908;1.870;2022-11-14T05:07:19;99988.81;;;6.77;100.00
71361;BME280;59166;48.908;1.870;2022-11-14T05:12:20;99973.41;;;6.72;100.00
71361;BME280;59166;48.908;1.870;2022-11-14T05:17:21;99967.50;;;6.70;100.00
71361;BME280;59166;48.908;1.870;2022-11-14T05:22:24;99961.31;;;6.70;100.00
71361;BME280;59166;48.908;1.870;2022-11-14T05:27:24;99955.22;;;6.74;100.00
71361;BME280;59166;48.908;1.870;2022-11-14T05:32:26;99957.91;;;6.74;100.00
71361;BME280;59166;48.908;1.870;2022-11-14T05:37:28;99942.53;;;6.70;100.00
71361;BME280;59166;48.908;1.870;2022-11-14T05:42:29;99943.00;;;6.67;100.00
71361;BME280;59166;48.908;1.870;2022-11-14T05:47:30;99940.00;;;6.63;100.00
71361;BME280;59166;48.908;1.870;2022-11-14T05:52:32;99937.81;;;6.60;100.00
71361;BME280;59166;48.908;1.870;2022-11-14T05:57:33;99938.03;;;6.59;100.00
71361;BME280;59166;48.908;1.870;2022-11-14T06:02:34;99934.19;;;6.55;100.00
71361;BME280;59166;48.908;1.870;2022-11-14T06:07:37;99929.66;;;6.55;100.00
71361;BME280;59166;48.908;1.870;2022-11-14T06:12:38;99917.88;;;6.56;100.00
71361;BME280;59166;48.908;1.870;2022-11-14T06:17:39;99916.41;;;6.49;100.00
71361;BME280;59166;48.908;1.870;2022-11-14T06:22:41;99942.41;;;6.48;100.00
71361;BME280;59166;48.908;1.870;2022-11-14T06:27:42;99935.66;;;6.46;100.00
71361;BME280;59166;48.908;1.870;2022-11-14T06:32:43;99937.97;;;6.42;100.00
71361;BME280;59166;48.908;1.870;2022-11-14T06:37:45;99943.84;;;6.39;100.00
71361;BME280;59166;48.908;1.870;2022-11-14T06:42:46;99948.88;;;6.36;100.00
71361;BME280;59166;48.908;1.870;2022-11-14T06:47:47;99949.84;;;6.30;100.00
71361;BME280;59166;48.908;1.870;2022-11-14T06:52:50;99949.72;;;6.24;100.00
71361;BME280;59166;48.908;1.870;2022-11-14T06:58:19;99950.66;;;6.30;100.00
71361;BME280;59166;48.908;1.870;2022-11-14T07:03:33;99955.28;;;6.35;100.00
71361;BME280;59166;48.908;1.870;2022-11-14T07:14:44;99946.59;;;6.28;100.00
71361;BME280;59166;48.908;1.870;2022-11-14T07:20:14;99968.75;;;6.23;100.00
71361;BME280;59166;48.908;1.870;2022-11-14T07:25:25;99973.22;;;6.17;100.00
71361;BME280;59166;48.908;1.870;2022-11-14T07:30:28;99965.25;;;6.22;100.00
71361;BME280;59166;48.908;1.870;2022-11-14T07:35:32;99954.69;;;6.16;100.00
71361;BME280;59166;48.908;1.870;2022-11-14T07:40:33;99956.88;;;6.19;100.00
71361;BME280;59166;48.908;1.870;2022-11-14T07:45:36;99960.03;;;6.16;100.00
71361;BME280;59166;48.908;1.870;2022-11-14T07:50:36;99957.13;;;6.17;100.00
71361;BME280;59166;48.908;1.870;2022-11-14T07:55:38;99952.75;;;6.28;100.00
71361;BME280;59166;48.908;1.870;2022-11-14T08:00:40;99952.28;;;6.31;100.00
71361;BME280;59166;48.908;1.870;2022-11-14T08:05:41;99954.09;;;6.42;100.00
71361;BME280;59166;48.908;1.870;2022-11-14T08:10:42;99961.56;;;6.40;100.00
71361;BME280;59166;48.908;1.870;2022-11-14T08:15:44;99962.00;;;6.49;100.00
71361;BME280;59166;48.908;1.870;2022-11-14T08:20:45;99964.31;;;6.57;100.00
71361;BME280;59166;48.908;1.870;2022-11-14T08:25:46;99951.13;;;6.55;100.00
71361;BME280;59166;48.908;1.870;2022-11-14T08:30:49;99945.25;;;6.58;100.00
71361;BME280;59166;48.908;1.870;2022-11-14T08:35:50;99945.13;;;6.65;100.00
71361;BME280;59166;48.908;1.870;2022-11-14T08:40:51;99947.16;;;6.74;100.00
71361;BME280;59166;48.908;1.870;2022-11-14T08:45:56;99943.88;;;6.72;100.00
71361;BME280;59166;48.908;1.870;2022-11-14T08:50:57;99947.50;;;6.78;100.00
71361;BME280;59166;48.908;1.870;2022-11-14T08:55:58;99947.06;;;6.86;100.00
71361;BME280;59166;48.908;1.870;2022-11-14T09:01:02;99948.31;;;6.95;100.00
71361;BME280;59166;48.908;1.870;2022-11-14T09:06:03;99947.81;;;6.98;100.00
71361;BME280;59166;48.908;1.870;2022-11-14T09:11:04;99948.47;;;7.05;100.00
71361;BME280;59166;48.908;1.870;2022-11-14T09:16:07;99941.50;;;7.09;100.00
71361;BME280;59166;48.908;1.870;2022-11-14T09:21:09;99935.56;;;7.24;100.00
71361;BME280;59166;48.908;1.870;2022-11-14T09:26:10;99927.88;;;7.33;100.00
71361;BME280;59166;48.908;1.870;2022-11-14T09:31:12;99924.75;;;7.41;100.00
71361;BME280;59166;48.908;1.870;2022-11-14T09:36:13;99926.75;;;7.50;100.00
71361;BME280;59166;48.908;1.870;2022-11-14T09:41:22;99929.06;;;7.63;100.00
71361;BME280;59166;48.908;1.870;2022-11-14T09:46:26;99932.97;;;7.72;100.00
71361;BME280;59166;48.908;1.870;2022-11-14T09:51:32;99931.03;;;7.90;100.00
71361;BME280;59166;48.908;1.870;2022-11-14T09:56:36;99941.44;;;8.08;100.00
71361;BME280;59166;48.908;1.870;2022-11-14T10:01:43;99942.31;;;8.13;100.00
71361;BME280;59166;48.908;1.870;2022-11-14T10:06:56;99936.03;;;8.29;100.00
71361;BME280;59166;48.908;1.870;2022-11-14T10:12:06;99938.50;;;8.36;100.00
71361;BME280;59166;48.908;1.870;2022-11-14T10:17:22;99941.69;;;8.60;100.00
71361;BME280;59166;48.908;1.870;2022-11-14T10:22:41;99937.31;;;8.86;100.00
71361;BME280;59166;48.908;1.870;2022-11-14T10:27:53;99932.97;;;9.11;100.00
71361;BME280;59166;48.908;1.870;2022-11-14T10:33:13;99917.97;;;9.30;100.00
71361;BME280;59166;48.908;1.870;2022-11-14T10:38:37;99914.09;;;9.63;100.00
71361;BME280;59166;48.908;1.870;2022-11-14T10:43:41;99905.00;;;9.90;100.00
71361;BME280;59166;48.908;1.870;2022-11-14T10:48:46;99906.66;;;10.01;100.00
71361;BME280;59166;48.908;1.870;2022-11-14T10:53:53;99901.56;;;10.14;100.00
71361;BME280;59166;48.908;1.870;2022-11-14T10:58:55;99897.28;;;10.49;100.00
71361;BME280;59166;48.908;1.870;2022-11-14T11:03:57;99893.53;;;10.80;100.00
71361;BME280;59166;48.908;1.870;2022-11-14T11:08:58;99881.06;;;11.09;100.00
71361;BME280;59166;48.908;1.870;2022-11-14T11:14:00;99876.13;;;11.36;100.00
71361;BME280;59166;48.908;1.870;2022-11-14T11:19:22;99864.09;;;11.63;100.00
71361;BME280;59166;48.908;1.870;2022-11-14T11:24:30;99861.53;;;11.86;100.00
71361;BME280;59166;48.908;1.870;2022-11-14T11:29:32;99849.47;;;12.13;100.00
71361;BME280;59166;48.908;1.870;2022-11-14T11:34:36;99834.72;;;12.34;100.00
71361;BME280;59166;48.908;1.870;2022-11-14T11:39:40;99837.81;;;12.51;100.00
71361;BME280;59166;48.908;1.870;2022-11-14T11:44:44;99831.75;;;12.64;100.00
71361;BME280;59166;48.908;1.870;2022-11-14T11:49:50;99833.84;;;12.72;98.35
71361;BME280;59166;48.908;1.870;2022-11-14T11:54:58;99819.97;;;12.79;97.91
71361;BME280;59166;48.908;1.870;2022-11-14T12:00:05;99823.38;;;12.89;98.65
71361;BME280;59166;48.908;1.870;2022-11-14T12:05:12;99815.13;;;13.00;99.20
71361;BME280;59166;48.908;1.870;2022-11-14T12:10:16;99800.19;;;13.02;97.90
71361;BME280;59166;48.908;1.870;2022-11-14T12:15:43;99798.22;;;13.08;95.27
71361;BME280;59166;48.908;1.870;2022-11-14T12:21:09;99800.06;;;13.12;96.12
71361;BME280;59166;48.908;1.870;2022-11-14T12:26:30;99796.03;;;13.33;91.60
71361;BME280;59166;48.908;1.870;2022-11-14T12:31:36;99799.22;;;13.35;92.20
71361;BME280;59166;48.908;1.870;2022-11-14T12:36:43;99799.31;;;13.30;92.71
71361;BME280;59166;48.908;1.870;2022-11-14T12:41:44;99804.22;;;13.28;92.14
71361;BME280;59166;48.908;1.870;2022-11-14T12:47:11;99788.50;;;13.25;92.79
71361;BME280;59166;48.908;1.870;2022-11-14T12:52:47;99783.53;;;13.32;92.35
71361;BME280;59166;48.908;1.870;2022-11-14T12:57:55;99778.94;;;13.33;92.91
71361;BME280;59166;48.908;1.870;2022-11-14T13:08:51;99773.25;;;13.72;92.79
71361;BME280;59166;48.908;1.870;2022-11-14T13:13:59;99769.06;;;13.61;92.32
71361;BME280;59166;48.908;1.870;2022-11-14T13:19:12;99761.25;;;13.35;94.05
71361;BME280;59166;48.908;1.870;2022-11-14T13:24:18;99762.06;;;13.36;96.09
71361;BME280;59166;48.908;1.870;2022-11-14T13:29:46;99757.94;;;13.20;97.47
71361;BME280;59166;48.908;1.870;2022-11-14T13:34:52;99751.03;;;13.27;96.89
71361;BME280;59166;48.908;1.870;2022-11-14T13:40:03;99745.06;;;13.30;98.94
71361;BME280;59166;48.908;1.870;2022-11-14T13:45:44;99730.50;;;13.21;98.23
71361;BME280;59166;48.908;1.870;2022-11-14T13:50:50;99731.63;;;13.20;98.65
71361;BME280;59166;48.908;1.870;2022-11-14T13:56:00;99731.50;;;13.30;98.42
71361;BME280;59166;48.908;1.870;2022-11-14T14:01:13;99731.41;;;13.35;98.79
71361;BME280;59166;48.908;1.870;2022-11-14T14:06:50;99728.63;;;13.22;99.68
71361;BME280;59166;48.908;1.870;2022-11-14T14:12:09;99728.38;;;13.18;99.34
71361;BME280;59166;48.908;1.870;2022-11-14T14:17:22;99724.59;;;13.19;99.94
71361;BME280;59166;48.908;1.870;2022-11-14T14:22:31;99725.69;;;13.18;100.00
71361;BME280;59166;48.908;1.870;2022-11-14T14:27:48;99726.25;;;13.15;100.00
71361;BME280;59166;48.908;1.870;2022-11-14T14:33:09;99724.63;;;13.14;100.00
71361;BME280;59166;48.908;1.870;2022-11-14T14:38:11;99741.91;;;13.23;100.00
71361;BME280;59166;48.908;1.870;2022-11-14T14:43:23;99734.50;;;13.29;100.00
71361;BME280;59166;48.908;1.870;2022-11-14T14:48:25;99736.38;;;13.28;99.79
71361;BME280;59166;48.908;1.870;2022-11-14T14:53:28;99724.59;;;13.19;100.00
71361;BME280;59166;48.908;1.870;2022-11-14T14:58:31;99726.41;;;13.05;100.00
71361;BME280;59166;48.908;1.870;2022-11-14T15:03:36;99725.06;;;13.03;100.00
71361;BME280;59166;48.908;1.870;2022-11-14T15:08:38;99712.91;;;13.00;100.00
71361;BME280;59166;48.908;1.870;2022-11-14T15:13:41;99711.75;;;13.06;100.00
71361;BME280;59166;48.908;1.870;2022-11-14T15:18:43;99711.22;;;13.04;100.00
71361;BME280;59166;48.908;1.870;2022-11-14T15:23:44;99723.09;;;13.08;100.00
71361;BME280;59166;48.908;1.870;2022-11-14T15:28:46;99715.81;;;13.04;100.00
71361;BME280;59166;48.908;1.870;2022-11-14T15:34:00;99721.09;;;12.95;100.00
71361;BME280;59166;48.908;1.870;2022-11-14T15:39:03;99728.41;;;12.95;100.00
71361;BME280;59166;48.908;1.870;2022-11-14T15:44:29;99729.59;;;12.88;100.00
71361;BME280;59166;48.908;1.870;2022-11-14T15:49:30;99733.97;;;12.84;100.00
71361;BME280;59166;48.908;1.870;2022-11-14T15:54:32;99733.22;;;12.79;100.00
71361;BME280;59166;48.908;1.870;2022-11-14T15:59:35;99747.03;;;12.77;100.00
71361;BME280;59166;48.908;1.870;2022-11-14T16:04:36;99741.13;;;12.75;100.00
71361;BME280;59166;48.908;1.870;2022-11-14T16:09:38;99748.50;;;12.70;100.00
71361;BME280;59166;48.908;1.870;2022-11-14T16:14:40;99753.28;;;12.78;100.00
71361;BME280;59166;48.908;1.870;2022-11-14T16:19:41;99747.13;;;12.72;100.00
71361;BME280;59166;48.908;1.870;2022-11-14T16:24:42;99747.94;;;12.73;100.00
71361;BME280;59166;48.908;1.870;2022-11-14T16:29:44;99752.13;;;12.84;100.00
71361;BME280;59166;48.908;1.870;2022-11-14T16:34:46;99745.72;;;12.75;100.00
71361;BME280;59166;48.908;1.870;2022-11-14T16:39:46;99752.78;;;12.76;100.00
71361;BME280;59166;48.908;1.870;2022-11-14T16:44:49;99755.75;;;12.74;100.00
71361;BME280;59166;48.908;1.870;2022-11-14T16:49:50;99752.78;;;12.76;100.00
71361;BME280;59166;48.908;1.870;2022-11-14T16:54:50;99749.25;;;12.75;100.00
71361;BME280;59166;48.908;1.870;2022-11-14T16:59:53;99744.56;;;12.81;100.00
71361;BME280;59166;48.908;1.870;2022-11-14T17:04:53;99734.88;;;12.75;100.00
71361;BME280;59166;48.908;1.870;2022-11-14T17:09:54;99742.22;;;12.74;100.00
71361;BME280;59166;48.908;1.870;2022-11-14T17:14:57;99743.03;;;12.75;100.00
71361;BME280;59166;48.908;1.870;2022-11-14T17:19:57;99735.47;;;12.72;100.00
71361;BME280;59166;48.908;1.870;2022-11-14T17:24:58;99732.75;;;12.72;100.00
71361;BME280;59166;48.908;1.870;2022-11-14T17:30:01;99733.25;;;12.74;100.00
71361;BME280;59166;48.908;1.870;2022-11-14T17:35:01;99734.88;;;12.75;100.00
71361;BME280;59166;48.908;1.870;2022-11-14T17:40:03;99735.41;;;12.77;100.00
71361;BME280;59166;48.908;1.870;2022-11-14T17:45:06;99734.88;;;12.75;100.00
71361;BME280;59166;48.908;1.870;2022-11-14T17:50:08;99739.25;;;12.71;100.00
71361;BME280;59166;48.908;1.870;2022-11-14T17:55:09;99728.50;;;12.66;100.00
71361;BME280;59166;48.908;1.870;2022-11-14T18:00:13;99737.97;;;12.63;100.00
71361;BME280;59166;48.908;1.870;2022-11-14T18:05:14;99737.53;;;12.56;100.00
71361;BME280;59166;48.908;1.870;2022-11-14T18:10:16;99741.34;;;12.55;100.00
71361;BME280;59166;48.908;1.870;2022-11-14T18:15:18;99738.31;;;12.57;100.00
71361;BME280;59166;48.908;1.870;2022-11-14T18:20:19;99744.38;;;12.49;100.00
71361;BME280;59166;48.908;1.870;2022-11-14T18:25:20;99762.25;;;12.50;100.00
71361;BME280;59166;48.908;1.870;2022-11-14T18:30:22;99756.53;;;12.51;100.00
71361;BME280;59166;48.908;1.870;2022-11-14T18:35:22;99765.19;;;12.53;100.00
71361;BME280;59166;48.908;1.870;2022-11-14T18:40:23;99764.41;;;12.53;100.00
71361;BME280;59166;48.908;1.870;2022-11-14T18:45:25;99761.97;;;12.51;100.00
71361;BME280;59166;48.908;1.870;2022-11-14T18:50:26;99753.09;;;12.46;100.00
71361;BME280;59166;48.908;1.870;2022-11-14T18:55:27;99760.06;;;12.52;100.00
71361;BME280;59166;48.908;1.870;2022-11-14T19:00:29;99761.72;;;12.48;100.00
71361;BME280;59166;48.908;1.870;2022-11-14T19:05:34;99755.00;;;12.45;100.00
71361;BME280;59166;48.908;1.870;2022-11-14T19:10:34;99760.09;;;12.47;100.00
71361;BME280;59166;48.908;1.870;2022-11-14T19:15:37;99760.00;;;12.57;100.00
71361;BME280;59166;48.908;1.870;2022-11-14T19:20:37;99763.59;;;12.52;100.00
71361;BME280;59166;48.908;1.870;2022-11-14T19:25:38;99761.63;;;12.58;100.00
71361;BME280;59166;48.908;1.870;2022-11-14T19:30:41;99770.25;;;12.60;100.00
71361;BME280;59166;48.908;1.870;2022-11-14T19:35:42;99771.56;;;12.67;100.00
71361;BME280;59166;48.908;1.870;2022-11-14T19:40:43;99763.16;;;12.69;100.00
71361;BME280;59166;48.908;1.870;2022-11-14T19:45:45;99772.84;;;12.75;100.00
71361;BME280;59166;48.908;1.870;2022-11-14T19:50:46;99768.22;;;12.75;100.00
71361;BME280;59166;48.908;1.870;2022-11-14T19:55:47;99785.06;;;12.72;99.60
71361;BME280;59166;48.908;1.870;2022-11-14T20:00:49;99787.00;;;12.67;98.91
71361;BME280;59166;48.908;1.870;2022-11-14T20:05:50;99799.56;;;12.58;98.09
71361;BME280;59166;48.908;1.870;2022-11-14T20:10:56;99810.25;;;12.44;96.77
71361;BME280;59166;48.908;1.870;2022-11-14T20:15:58;99809.25;;;12.30;96.96
71361;BME280;59166;48.908;1.870;2022-11-14T20:21:02;99815.81;;;12.24;95.11
71361;BME280;59166;48.908;1.870;2022-11-14T20:26:03;99811.78;;;12.16;95.66
71361;BME280;59166;48.908;1.870;2022-11-14T20:31:08;99813.75;;;12.06;96.65
71361;BME280;59166;48.908;1.870;2022-11-14T20:36:12;99809.22;;;11.96;96.69
71361;BME280;59166;48.908;1.870;2022-11-14T20:41:14;99797.66;;;11.91;96.16
71361;BME280;59166;48.908;1.870;2022-11-14T20:46:18;99793.63;;;11.83;97.53
71361;BME280;59166;48.908;1.870;2022-11-14T20:51:21;99797.47;;;11.77;97.08
71361;BME280;59166;48.908;1.870;2022-11-14T20:56:22;99794.00;;;11.66;98.02
71361;BME280;59166;48.908;1.870;2022-11-14T21:01:25;99814.88;;;11.61;98.15
71361;BME280;59166;48.908;1.870;2022-11-14T21:06:26;99798.41;;;11.52;97.96
71361;BME280;59166;48.908;1.870;2022-11-14T21:11:27;99800.91;;;11.44;98.37
71361;BME280;59166;48.908;1.870;2022-11-14T21:16:32;99805.81;;;11.36;99.32
71361;BME280;59166;48.908;1.870;2022-11-14T21:21:34;99816.88;;;11.35;99.83
71361;BME280;59166;48.908;1.870;2022-11-14T21:26:37;99816.88;;;11.40;100.00
71361;BME280;59166;48.908;1.870;2022-11-14T21:31:41;99820.09;;;11.42;100.00
71361;BME280;59166;48.908;1.870;2022-11-14T21:36:42;99821.97;;;11.47;100.00
71361;BME280;59166;48.908;1.870;2022-11-14T21:41:44;99811.16;;;11.47;100.00
71361;BME280;59166;48.908;1.870;2022-11-14T21:46:46;99813.31;;;11.50;100.00
71361;BME280;59166;48.908;1.870;2022-11-14T21:51:47;99821.97;;;11.47;100.00
71361;BME280;59166;48.908;1.870;2022-11-14T21:56:48;99801.41;;;11.51;100.00
71361;BME280;59166;48.908;1.870;2022-11-14T22:01:50;99793.81;;;11.53;99.54
71361;BME280;59166;48.908;1.870;2022-11-14T22:06:52;99799.28;;;11.43;100.00
71361;BME280;59166;48.908;1.870;2022-11-14T22:11:53;99807.72;;;11.31;100.00
71361;BME280;59166;48.908;1.870;2022-11-14T22:16:56;99804.97;;;11.36;100.00
71361;BME280;59166;48.908;1.870;2022-11-14T22:21:57;99808.75;;;11.35;100.00
71361;BME280;59166;48.908;1.870;2022-11-14T22:26:58;99803.41;;;11.30;100.00
71361;BME280;59166;48.908;1.870;2022-11-14T22:32:00;99802.63;;;11.19;100.00
71361;BME280;59166;48.908;1.870;2022-11-14T22:37:01;99799.97;;;11.09;100.00
71361;BME280;59166;48.908;1.870;2022-11-14T22:42:02;99803.22;;;11.01;100.00
71361;BME280;59166;48.908;1.870;2022-11-14T22:47:04;99792.44;;;10.91;100.00
71361;BME280;59166;48.908;1.870;2022-11-14T22:52:05;99799.47;;;10.92;100.00
71361;BME280;59166;48.908;1.870;2022-11-14T22:57:06;99800.56;;;10.81;100.00
71361;BME280;59166;48.908;1.870;2022-11-14T23:02:08;99784.66;;;10.74;100.00
71361;BME280;59166;48.908;1.870;2022-11-14T23:07:09;99781.66;;;10.71;100.00
71361;BME280;59166;48.908;1.870;2022-11-14T23:12:10;99779.78;;;10.66;100.00
71361;BME280;59166;48.908;1.870;2022-11-14T23:17:12;99780.06;;;10.60;100.00
71361;BME280;59166;48.908;1.870;2022-11-14T23:22:13;99771.44;;;10.63;100.00
71361;BME280;59166;48.908;1.870;2022-11-14T23:27:14;99780.63;;;10.52;100.00
71361;BME280;59166;48.908;1.870;2022-11-14T23:32:16;99786.28;;;10.50;100.00
71361;BME280;59166;48.908;1.870;2022-11-14T23:37:18;99788.72;;;10.42;100.00
71361;BME280;59166;48.908;1.870;2022-11-14T23:42:19;99786.06;;;10.37;100.00
71361;BME280;59166;48.908;1.870;2022-11-14T23:47:21;99784.41;;;10.20;100.00
71361;BME280;59166;48.908;1.870;2022-11-14T23:52:22;99792.25;;;10.17;100.00
71361;BME280;59166;48.908;1.870;2022-11-14T23:57:24;99785.50;;;10.04;100.00
